Time;durP1;ratioP1;P1;durP2;ratioP2;P2;SDS_P1;SDS_P2;PMS_P1;PMS_P2;Temp;Humidity;BMP_temperature;BMP_pressure;BME280_temperature;BME280_humidity;BME280_pressure;Samples;Min_cycle;Max_cycle;Signal;HPM_P1;HPM_P2
2023/09/20 00:02:53;;;;;;;;;;;21.20;67.30;;;;;;10394593;28;34158;-66
2023/09/20 00:07:56;;;;;;;;;;;21.20;67.30;;;;;;10405804;28;19933;-65
2023/09/20 00:12:57;;;;;;;;;;;21.20;67.30;;;;;;10430360;28;20107;-66
2023/09/20 00:17:59;;;;;;;;;;;21.20;67.40;;;;;;10417788;28;20411;-66
2023/09/20 00:23:02;;;;;;;;;;;21.20;67.30;;;;;;10402103;28;19940;-66
2023/09/20 00:28:04;;;;;;;;;;;21.10;67.30;;;;;;10392215;28;19937;-66
2023/09/20 00:33:06;;;;;;;;;;;21.20;67.30;;;;;;10398499;28;20301;-65
2023/09/20 00:38:09;;;;;;;;;;;21.10;67.30;;;;;;10415504;28;20352;-65
2023/09/20 00:43:11;;;;;;;;;;;21.10;67.30;;;;;;10405318;28;20462;-65
2023/09/20 00:48:13;;;;;;;;;;;21.10;67.30;;;;;;10391956;28;19933;-65
2023/09/20 00:53:16;;;;;;;;;;;21.10;67.30;;;;;;10389492;28;20161;-65
2023/09/20 00:58:19;;;;;;;;;;;21.20;67.30;;;;;;10394547;28;19933;-65
2023/09/20 01:03:22;;;;;;;;;;;21.20;67.40;;;;;;10400424;28;19941;-64
2023/09/20 01:08:25;;;;;;;;;;;21.20;67.30;;;;;;10394439;28;20032;-64
2023/09/20 01:13:27;;;;;;;;;;;21.10;67.30;;;;;;10402352;28;19944;-65
2023/09/20 01:18:29;;;;;;;;;;;21.20;67.40;;;;;;10420330;28;19933;-65
2023/09/20 01:23:32;;;;;;;;;;;21.10;67.20;;;;;;10411267;28;19933;-64
2023/09/20 01:28:35;;;;;;;;;;;21.20;67.30;;;;;;10405518;28;19933;-65
2023/09/20 01:33:38;;;;;;;;;;;21.20;67.30;;;;;;10408996;28;20028;-65
2023/09/20 01:38:40;;;;;;;;;;;21.20;67.30;;;;;;10400523;28;19940;-65
2023/09/20 01:43:43;;;;;;;;;;;21.20;67.30;;;;;;10388186;28;19934;-65
2023/09/20 01:48:47;;;;;;;;;;;21.20;67.20;;;;;;10395895;28;20341;-65
2023/09/20 01:53:49;;;;;;;;;;;21.20;67.20;;;;;;10396886;28;19933;-65
2023/09/20 01:58:51;;;;;;;;;;;21.20;67.20;;;;;;10393122;28;20491;-65
2023/09/20 02:03:55;;;;;;;;;;;21.20;67.20;;;;;;10399340;28;20787;-65
2023/09/20 02:08:57;;;;;;;;;;;21.20;67.20;;;;;;10396941;28;19957;-65
2023/09/20 02:14:00;;;;;;;;;;;21.20;67.20;;;;;;10397961;28;20424;-65
2023/09/20 02:19:02;;;;;;;;;;;21.20;67.20;;;;;;10394190;28;19987;-65
2023/09/20 02:24:05;;;;;;;;;;;21.20;67.20;;;;;;10394791;28;19933;-65
2023/09/20 02:29:08;;;;;;;;;;;21.20;67.20;;;;;;10396496;28;20032;-65
2023/09/20 02:34:13;;;;;;;;;;;21.20;67.20;;;;;;10395590;28;19977;-65
2023/09/20 02:39:16;;;;;;;;;;;21.20;67.20;;;;;;10407284;28;19933;-65
2023/09/20 02:44:18;;;;;;;;;;;21.20;67.20;;;;;;10381710;28;20023;-65
2023/09/20 02:49:20;;;;;;;;;;;21.20;67.20;;;;;;10391821;28;20055;-65
2023/09/20 02:54:22;;;;;;;;;;;21.20;67.20;;;;;;10393047;28;19959;-65
2023/09/20 02:59:27;;;;;;;;;;;21.20;67.20;;;;;;10405670;28;19940;-65
2023/09/20 03:04:29;;;;;;;;;;;21.20;67.10;;;;;;10395407;28;20028;-65
2023/09/20 03:09:35;;;;;;;;;;;21.20;67.10;;;;;;10395752;28;20319;-65
2023/09/20 03:14:38;;;;;;;;;;;21.10;67.10;;;;;;10382752;28;19934;-65
2023/09/20 03:19:41;;;;;;;;;;;21.10;67.10;;;;;;10378589;28;20051;-65
2023/09/20 03:24:42;;;;;;;;;;;21.10;67.10;;;;;;10363936;28;20481;-65
2023/09/20 03:29:46;;;;;;;;;;;21.10;67.20;;;;;;10368968;28;20883;-65
2023/09/20 03:34:48;;;;;;;;;;;21.10;67.10;;;;;;10361749;28;19933;-66
2023/09/20 03:39:51;;;;;;;;;;;21.10;67.10;;;;;;10370055;28;19941;-65
2023/09/20 03:44:52;;;;;;;;;;;21.10;67.10;;;;;;10377649;28;19941;-66
2023/09/20 03:49:55;;;;;;;;;;;21.10;67.10;;;;;;10386165;28;19985;-65
2023/09/20 03:54:57;;;;;;;;;;;21.10;67.10;;;;;;10388675;28;20201;-66
2023/09/20 04:00:06;;;;;;;;;;;21.10;67.10;;;;;;10373778;28;19934;-65
2023/09/20 04:05:15;;;;;;;;;;;21.10;67.10;;;;;;10400347;28;20510;-65
2023/09/20 04:10:35;;;;;;;;;;;21.10;67.20;;;;;;10393452;28;20470;-65
2023/09/20 04:15:40;;;;;;;;;;;21.10;67.10;;;;;;10391065;28;20857;-65
2023/09/20 04:20:45;;;;;;;;;;;21.10;67.10;;;;;;10398229;28;19933;-65
2023/09/20 04:25:47;;;;;;;;;;;21.00;67.10;;;;;;10392373;28;19933;-66
2023/09/20 04:30:49;;;;;;;;;;;21.00;67.00;;;;;;10387828;28;20313;-65
2023/09/20 04:35:53;;;;;;;;;;;21.00;67.10;;;;;;10367227;28;20368;-65
2023/09/20 04:40:56;;;;;;;;;;;21.00;67.10;;;;;;10367546;28;20019;-65
2023/09/20 04:51:20;;;;;;;;;;;21.00;67.10;;;;;;10460540;22;19941;-46
2023/09/20 04:56:23;;;;;;;;;;;21.00;67.00;;;;;;10385483;28;20234;-45
2023/09/20 05:01:26;;;;;;;;;;;21.00;67.10;;;;;;10395752;28;20319;-48
2023/09/20 05:06:28;;;;;;;;;;;21.00;67.00;;;;;;10387107;28;19934;-44
2023/09/20 05:11:29;;;;;;;;;;;21.00;67.00;;;;;;10389711;28;19940;-45
2023/09/20 05:16:32;;;;;;;;;;;21.00;67.00;;;;;;10389205;28;19952;-46
2023/09/20 05:21:35;;;;;;;;;;;21.00;67.00;;;;;;10387933;28;19940;-44
2023/09/20 05:26:36;;;;;;;;;;;21.00;67.20;;;;;;10377177;28;19941;-44
2023/09/20 05:31:38;;;;;;;;;;;21.00;67.40;;;;;;10387866;28;19940;-46
2023/09/20 05:36:43;;;;;;;;;;;21.10;68.00;;;;;;10384267;28;20343;-45
2023/09/20 05:41:45;;;;;;;;;;;21.10;68.50;;;;;;10380061;28;20085;-44
2023/09/20 05:46:47;;;;;;;;;;;21.10;67.90;;;;;;10384163;28;19933;-45
2023/09/20 05:51:50;;;;;;;;;;;21.10;67.70;;;;;;10381040;28;20283;-47
2023/09/20 05:56:52;;;;;;;;;;;21.20;67.50;;;;;;10377223;28;19933;-48
2023/09/20 06:01:53;;;;;;;;;;;21.10;67.50;;;;;;10391636;28;19934;-44
2023/09/20 06:06:55;;;;;;;;;;;21.10;67.90;;;;;;10374167;28;19933;-44
2023/09/20 06:11:57;;;;;;;;;;;21.10;67.50;;;;;;10386763;28;19933;-44
2023/09/20 06:17:00;;;;;;;;;;;21.10;67.40;;;;;;10393051;28;19941;-63
2023/09/20 06:22:02;;;;;;;;;;;21.10;67.40;;;;;;10387433;28;19955;-46
2023/09/20 06:27:04;;;;;;;;;;;21.10;67.30;;;;;;10386880;28;19956;-43
2023/09/20 06:32:06;;;;;;;;;;;21.10;67.30;;;;;;10386856;28;19941;-46
2023/09/20 06:37:09;;;;;;;;;;;21.10;67.30;;;;;;10385025;28;20028;-45
2023/09/20 06:42:12;;;;;;;;;;;21.10;67.30;;;;;;10392526;28;20864;-48
2023/09/20 06:47:14;;;;;;;;;;;21.10;67.40;;;;;;10387184;28;19934;-47
2023/09/20 06:52:16;;;;;;;;;;;21.10;67.40;;;;;;10371082;28;20315;-47
2023/09/20 06:57:19;;;;;;;;;;;21.10;67.40;;;;;;10382102;28;20316;-46
2023/09/20 07:02:24;;;;;;;;;;;21.10;67.40;;;;;;10394694;28;19940;-47
2023/09/20 07:07:26;;;;;;;;;;;21.10;67.50;;;;;;10368262;28;19940;-44
2023/09/20 07:12:28;;;;;;;;;;;21.10;67.50;;;;;;10401372;28;20518;-46
2023/09/20 07:17:30;;;;;;;;;;;21.10;67.40;;;;;;10387029;28;19934;-46
2023/09/20 07:22:34;;;;;;;;;;;21.10;67.50;;;;;;10381096;28;20239;-47
2023/09/20 07:27:35;;;;;;;;;;;21.10;67.50;;;;;;10383097;28;19933;-45
2023/09/20 07:32:37;;;;;;;;;;;21.00;67.50;;;;;;10391138;28;19941;-46
2023/09/20 07:37:43;;;;;;;;;;;21.10;67.50;;;;;;10380167;28;20448;-47
2023/09/20 07:42:46;;;;;;;;;;;21.10;67.40;;;;;;10393274;28;19933;-44
2023/09/20 07:47:47;;;;;;;;;;;21.10;67.50;;;;;;10382032;28;19934;-43
2023/09/20 07:52:50;;;;;;;;;;;21.00;67.50;;;;;;10381152;28;19988;-48
2023/09/20 07:57:52;;;;;;;;;;;21.00;67.40;;;;;;10389832;28;19933;-43
2023/09/20 08:02:54;;;;;;;;;;;21.00;67.50;;;;;;10395000;28;19941;-45
2023/09/20 08:07:56;;;;;;;;;;;21.00;67.50;;;;;;10390550;28;20092;-46
2023/09/20 08:12:57;;;;;;;;;;;21.00;67.60;;;;;;10387576;28;19933;-48
2023/09/20 09:00:49;;;;;;;;;;;21.00;67.60;;;;;;10382163;28;19941;-44
2023/09/20 09:05:53;;;;;;;;;;;21.00;67.70;;;;;;10389084;28;19940;-44
2023/09/20 09:10:55;;;;;;;;;;;21.00;67.60;;;;;;10379944;28;19944;-46
2023/09/20 09:15:57;;;;;;;;;;;21.00;67.50;;;;;;10384166;28;20316;-47
2023/09/20 09:20:59;;;;;;;;;;;21.10;67.50;;;;;;10384507;28;19933;-46
2023/09/20 09:26:01;;;;;;;;;;;21.10;67.60;;;;;;10390754;28;20026;-48
2023/09/20 09:31:04;;;;;;;;;;;21.10;67.60;;;;;;10388505;28;21092;-47
2023/09/20 09:36:07;;;;;;;;;;;21.10;67.50;;;;;;10389991;28;20004;-45
2023/09/20 09:41:09;;;;;;;;;;;21.10;67.40;;;;;;10386845;28;19934;-45
2023/09/20 09:46:11;;;;;;;;;;;21.10;67.50;;;;;;10388006;28;20016;-46
2023/09/20 09:51:14;;;;;;;;;;;21.10;67.40;;;;;;10393094;28;20396;-44
2023/09/20 09:56:16;;;;;;;;;;;21.10;67.40;;;;;;10387205;28;20468;-45
2023/09/20 10:01:20;;;;;;;;;;;21.20;67.60;;;;;;10388038;28;19943;-48
2023/09/20 10:06:25;;;;;;;;;;;21.20;67.40;;;;;;10385268;28;20436;-49
2023/09/20 10:11:27;;;;;;;;;;;21.20;67.40;;;;;;10395924;28;19941;-47
2023/09/20 10:16:29;;;;;;;;;;;21.20;67.50;;;;;;10395891;28;19933;-44
2023/09/20 10:21:31;;;;;;;;;;;21.20;67.50;;;;;;10395340;28;19985;-44
2023/09/20 10:26:36;;;;;;;;;;;21.20;67.50;;;;;;10380960;28;20028;-44
2023/09/20 10:31:39;;;;;;;;;;;21.20;67.60;;;;;;10380621;28;19938;-46
2023/09/20 10:36:51;;;;;;;;;;;21.20;67.60;;;;;;10395036;28;19933;-44
2023/09/20 10:41:53;;;;;;;;;;;21.20;67.60;;;;;;10394893;28;19956;-43
2023/09/20 10:47:01;;;;;;;;;;;21.20;67.60;;;;;;10394335;28;20803;-44
2023/09/20 10:52:03;;;;;;;;;;;21.10;67.50;;;;;;10392434;28;20412;-44
2023/09/20 10:57:09;;;;;;;;;;;21.20;67.70;;;;;;10396763;28;19934;-46
2023/09/20 11:02:12;;;;;;;;;;;21.10;67.50;;;;;;10393742;28;19933;-45
2023/09/20 11:07:17;;;;;;;;;;;21.10;67.60;;;;;;10392348;28;20032;-43
2023/09/20 11:12:20;;;;;;;;;;;21.20;67.70;;;;;;10394434;28;20513;-45
2023/09/20 11:17:22;;;;;;;;;;;21.10;67.60;;;;;;10393871;28;19940;-43
2023/09/20 11:22:25;;;;;;;;;;;21.10;67.60;;;;;;10389583;28;19940;-43
2023/09/20 11:27:27;;;;;;;;;;;21.10;67.70;;;;;;10383374;28;20332;-44
2023/09/20 11:32:29;;;;;;;;;;;21.10;67.70;;;;;;10390228;28;19961;-44
2023/09/20 11:37:32;;;;;;;;;;;21.10;67.80;;;;;;10388679;28;19940;-46
2023/09/20 11:42:36;;;;;;;;;;;21.10;67.80;;;;;;10385822;28;20409;-45
2023/09/20 11:47:42;;;;;;;;;;;21.10;68.00;;;;;;10392483;28;19961;-46
2023/09/20 11:52:46;;;;;;;;;;;21.10;68.00;;;;;;10380486;28;19933;-62
2023/09/20 11:57:48;;;;;;;;;;;21.10;67.90;;;;;;10393459;28;19933;-47
2023/09/20 12:02:51;;;;;;;;;;;21.10;68.00;;;;;;10391289;28;19987;-44
2023/09/20 12:07:54;;;;;;;;;;;21.20;68.00;;;;;;10392382;28;20135;-45
2023/09/20 12:12:56;;;;;;;;;;;21.10;67.90;;;;;;10390256;28;20028;-47
2023/09/20 12:17:57;;;;;;;;;;;21.10;67.90;;;;;;10368514;28;20399;-45
2023/09/20 12:23:01;;;;;;;;;;;21.10;67.90;;;;;;10377394;28;19934;-45
2023/09/20 12:28:04;;;;;;;;;;;21.20;67.90;;;;;;10383960;28;20377;-44
2023/09/20 12:33:07;;;;;;;;;;;21.20;68.60;;;;;;10379784;28;20092;-44
2023/09/20 12:38:09;;;;;;;;;;;21.20;68.50;;;;;;10382005;28;20368;-45
2023/09/20 12:43:11;;;;;;;;;;;21.30;68.40;;;;;;10378621;28;19933;-45
2023/09/20 12:48:13;;;;;;;;;;;21.30;68.60;;;;;;10377803;28;19937;-45
2023/09/20 12:53:15;;;;;;;;;;;21.30;68.50;;;;;;10382353;28;20316;-46
2023/09/20 12:58:17;;;;;;;;;;;21.40;68.40;;;;;;10390756;28;20411;-49
2023/09/20 13:03:20;;;;;;;;;;;21.40;68.50;;;;;;10384052;28;20316;-45
2023/09/20 13:08:24;;;;;;;;;;;21.40;68.30;;;;;;10375249;28;20237;-43
2023/09/20 13:13:26;;;;;;;;;;;21.40;68.00;;;;;;10375667;28;19934;-45
2023/09/20 13:18:28;;;;;;;;;;;21.40;68.00;;;;;;10390200;28;20194;-43
2023/09/20 13:23:31;;;;;;;;;;;21.50;68.10;;;;;;10389307;28;19934;-44
2023/09/20 13:28:33;;;;;;;;;;;21.50;68.00;;;;;;10386491;28;20057;-49
2023/09/20 13:33:35;;;;;;;;;;;21.50;68.00;;;;;;10381699;28;19933;-44
2023/09/20 13:38:37;;;;;;;;;;;21.50;68.10;;;;;;10389519;28;20095;-45
2023/09/20 13:43:40;;;;;;;;;;;21.50;68.00;;;;;;10387280;28;19940;-45
2023/09/20 13:48:42;;;;;;;;;;;21.50;68.00;;;;;;10377151;28;19934;-52
2023/09/20 13:53:48;;;;;;;;;;;21.50;68.00;;;;;;10386449;28;20474;-43
2023/09/20 13:58:54;;;;;;;;;;;21.50;67.90;;;;;;10390053;28;20109;-45
2023/09/20 14:03:56;;;;;;;;;;;21.50;68.00;;;;;;10393155;28;19933;-46
2023/09/20 14:08:59;;;;;;;;;;;21.50;68.00;;;;;;10387689;28;19933;-46
2023/09/20 14:14:02;;;;;;;;;;;21.50;67.90;;;;;;10375946;28;20301;-44
2023/09/20 14:19:05;;;;;;;;;;;21.50;67.80;;;;;;10385958;28;19944;-48
2023/09/20 14:24:06;;;;;;;;;;;21.50;67.80;;;;;;10387512;28;19934;-50
2023/09/20 14:29:10;;;;;;;;;;;21.50;68.00;;;;;;10389040;28;20440;-48
2023/09/20 14:34:11;;;;;;;;;;;21.50;68.00;;;;;;10388518;28;19940;-46
2023/09/20 14:39:14;;;;;;;;;;;21.50;67.90;;;;;;10388670;28;19934;-48
2023/09/20 14:44:16;;;;;;;;;;;21.50;68.00;;;;;;10379717;28;20392;-44
2023/09/20 14:49:19;;;;;;;;;;;21.50;68.20;;;;;;10368634;28;19987;-48
2023/09/20 14:54:21;;;;;;;;;;;21.50;68.40;;;;;;10382125;28;19934;-45
2023/09/20 14:59:22;;;;;;;;;;;21.60;69.00;;;;;;10391489;28;20103;-44
2023/09/20 15:04:24;;;;;;;;;;;21.60;68.70;;;;;;10392371;28;19940;-43
2023/09/20 15:09:26;;;;;;;;;;;21.60;68.70;;;;;;10381156;28;19933;-46
2023/09/20 15:14:29;;;;;;;;;;;21.60;68.70;;;;;;10380298;28;19933;-43
2023/09/20 15:19:30;;;;;;;;;;;21.60;68.70;;;;;;10384486;28;20440;-45
2023/09/20 15:24:33;;;;;;;;;;;21.60;68.70;;;;;;10378075;28;20397;-43
2023/09/20 15:29:35;;;;;;;;;;;21.50;68.70;;;;;;10379329;28;20048;-45
2023/09/20 15:34:37;;;;;;;;;;;21.60;68.80;;;;;;10376352;28;19940;-47
2023/09/20 15:39:39;;;;;;;;;;;21.60;68.70;;;;;;10385038;28;20363;-46
2023/09/20 15:44:45;;;;;;;;;;;21.60;68.90;;;;;;10386960;28;19934;-48
2023/09/20 15:49:47;;;;;;;;;;;21.70;68.70;;;;;;10374796;28;19934;-48
2023/09/20 15:54:49;;;;;;;;;;;21.80;69.30;;;;;;10375720;28;19937;-43
2023/09/20 15:59:51;;;;;;;;;;;21.90;70.20;;;;;;10388346;28;19934;-43
2023/09/20 16:04:53;;;;;;;;;;;21.90;72.70;;;;;;10381669;28;19960;-43
2023/09/20 16:09:54;;;;;;;;;;;22.00;74.40;;;;;;10386794;28;19933;-47
2023/09/20 16:14:56;;;;;;;;;;;22.20;75.10;;;;;;10377870;28;19934;-46
2023/09/20 16:19:59;;;;;;;;;;;22.30;74.70;;;;;;10383404;28;20037;-47
2023/09/20 16:25:01;;;;;;;;;;;22.30;73.30;;;;;;10385981;28;20459;-45
2023/09/20 16:30:04;;;;;;;;;;;22.40;72.80;;;;;;10387407;28;20277;-48
2023/09/20 16:35:06;;;;;;;;;;;22.40;72.50;;;;;;10383944;28;19944;-47
2023/09/20 16:40:08;;;;;;;;;;;22.40;72.10;;;;;;10376597;28;19974;-47
2023/09/20 16:45:15;;;;;;;;;;;22.40;71.80;;;;;;10390895;28;19933;-49
2023/09/20 16:50:18;;;;;;;;;;;22.40;71.70;;;;;;10384509;28;20226;-45
2023/09/20 16:55:20;;;;;;;;;;;22.40;71.60;;;;;;10372337;28;19934;-44
2023/09/20 17:00:23;;;;;;;;;;;22.40;71.60;;;;;;10379135;28;20257;-45
2023/09/20 17:05:25;;;;;;;;;;;22.30;71.80;;;;;;10379663;28;19940;-44
2023/09/20 17:10:28;;;;;;;;;;;22.30;71.70;;;;;;10383008;28;20485;-42
2023/09/20 17:15:30;;;;;;;;;;;22.30;71.70;;;;;;10375481;28;20027;-44
2023/09/20 17:20:32;;;;;;;;;;;22.30;71.60;;;;;;10388023;28;20342;-42
2023/09/20 17:25:34;;;;;;;;;;;22.20;71.60;;;;;;10376307;28;20250;-43
2023/09/20 17:30:38;;;;;;;;;;;22.20;71.80;;;;;;10377900;28;20261;-44
2023/09/20 17:35:40;;;;;;;;;;;22.20;72.00;;;;;;10364184;28;19934;-45
2023/09/20 17:40:46;;;;;;;;;;;22.20;72.10;;;;;;10376224;28;19949;-42
2023/09/20 17:45:49;;;;;;;;;;;22.20;71.90;;;;;;10383788;28;19934;-43
2023/09/20 17:50:52;;;;;;;;;;;22.10;71.80;;;;;;10362190;28;20047;-44
2023/09/20 17:55:54;;;;;;;;;;;22.00;71.70;;;;;;10373066;28;19934;-42
2023/09/20 18:00:57;;;;;;;;;;;22.10;71.80;;;;;;10368842;28;19933;-42
2023/09/20 18:05:59;;;;;;;;;;;22.10;71.40;;;;;;10368638;28;20225;-43
2023/09/20 18:11:01;;;;;;;;;;;22.00;70.90;;;;;;10383751;28;20344;-42
2023/09/20 18:16:03;;;;;;;;;;;22.00;70.50;;;;;;10386761;28;19938;-44
2023/09/20 18:21:06;;;;;;;;;;;22.00;70.60;;;;;;10392383;28;20000;-43
2023/09/20 18:26:11;;;;;;;;;;;21.90;70.60;;;;;;10367581;28;19989;-44
2023/09/20 18:31:16;;;;;;;;;;;21.90;70.90;;;;;;10382386;28;19933;-43
2023/09/20 18:36:19;;;;;;;;;;;21.90;71.60;;;;;;10397656;28;20490;-46
2023/09/20 18:41:21;;;;;;;;;;;21.90;71.40;;;;;;10378821;28;19940;-43
2023/09/20 18:46:25;;;;;;;;;;;22.00;71.10;;;;;;10375497;28;20079;-43
2023/09/20 18:51:28;;;;;;;;;;;21.90;71.00;;;;;;10373053;28;19985;-42
2023/09/20 18:56:30;;;;;;;;;;;21.90;71.00;;;;;;10377327;28;20028;-43
2023/09/20 19:01:31;;;;;;;;;;;21.90;71.00;;;;;;10375295;28;20297;-44
2023/09/20 19:06:36;;;;;;;;;;;21.90;70.90;;;;;;10379199;28;19934;-47
2023/09/20 19:11:39;;;;;;;;;;;21.90;70.40;;;;;;10379896;28;19933;-42
2023/09/20 19:16:43;;;;;;;;;;;21.90;70.10;;;;;;10385962;28;20472;-44
2023/09/20 19:21:47;;;;;;;;;;;21.90;69.70;;;;;;10382432;28;20385;-43
2023/09/20 19:26:50;;;;;;;;;;;21.90;69.40;;;;;;10389169;28;19933;-44
2023/09/20 19:31:52;;;;;;;;;;;21.90;69.10;;;;;;10377623;28;19977;-44
2023/09/20 19:36:54;;;;;;;;;;;21.90;68.80;;;;;;10384708;28;20332;-41
2023/09/20 19:41:56;;;;;;;;;;;21.90;68.50;;;;;;10383073;28;19934;-43
2023/09/20 19:46:58;;;;;;;;;;;21.90;68.20;;;;;;10376363;28;19934;-43
2023/09/20 19:52:00;;;;;;;;;;;21.90;68.00;;;;;;10378586;28;19964;-42
2023/09/20 19:57:03;;;;;;;;;;;21.90;67.70;;;;;;10365451;28;19934;-41
2023/09/20 20:02:05;;;;;;;;;;;21.90;67.50;;;;;;10381552;28;19944;-43
2023/09/20 20:07:06;;;;;;;;;;;21.90;67.30;;;;;;10389451;28;19933;-42
2023/09/20 20:12:28;;;;;;;;;;;21.90;67.20;;;;;;10388964;28;19940;-41
2023/09/20 20:17:32;;;;;;;;;;;21.90;67.00;;;;;;10384335;28;19933;-41
2023/09/20 20:22:35;;;;;;;;;;;21.90;68.10;;;;;;10371589;28;19934;-47
2023/09/20 20:27:38;;;;;;;;;;;21.90;66.80;;;;;;10376348;28;19933;-41
2023/09/20 20:32:40;;;;;;;;;;;21.90;66.70;;;;;;10375266;28;20404;-41
2023/09/20 20:37:45;;;;;;;;;;;21.80;66.40;;;;;;10383946;28;20052;-40
2023/09/20 20:42:48;;;;;;;;;;;21.80;66.60;;;;;;10389621;28;19941;-41
2023/09/20 20:47:54;;;;;;;;;;;21.80;66.20;;;;;;10388482;28;19941;-44
2023/09/20 20:53:00;;;;;;;;;;;21.80;65.90;;;;;;10385539;28;20415;-41
2023/09/20 20:58:09;;;;;;;;;;;21.80;65.70;;;;;;10384092;28;20412;-41
2023/09/20 21:03:12;;;;;;;;;;;21.80;65.40;;;;;;10382039;28;20397;-41
2023/09/20 21:08:15;;;;;;;;;;;21.80;65.20;;;;;;10384579;28;19933;-42
2023/09/20 21:13:16;;;;;;;;;;;21.80;65.10;;;;;;10387035;28;20407;-42
2023/09/20 21:18:19;;;;;;;;;;;21.80;64.70;;;;;;10379336;28;19934;-43
2023/09/20 21:23:22;;;;;;;;;;;21.80;64.50;;;;;;10401009;28;20129;-42
2023/09/20 21:28:24;;;;;;;;;;;21.80;64.30;;;;;;10384297;28;19934;-47
2023/09/20 21:33:26;;;;;;;;;;;21.80;64.10;;;;;;10389503;28;19987;-45
2023/09/20 21:38:28;;;;;;;;;;;21.80;63.90;;;;;;10381233;28;19933;-42
2023/09/20 21:43:29;;;;;;;;;;;21.80;63.70;;;;;;10389052;28;19933;-45
2023/09/20 21:48:31;;;;;;;;;;;21.80;63.70;;;;;;10385145;28;19934;-45
2023/09/20 21:53:33;;;;;;;;;;;21.80;63.30;;;;;;10389505;28;20023;-43
2023/09/20 21:58:35;;;;;;;;;;;21.80;63.10;;;;;;10389600;28;19941;-42
2023/09/20 22:03:37;;;;;;;;;;;21.80;63.10;;;;;;10394901;28;20463;-46
2023/09/20 22:08:41;;;;;;;;;;;21.80;63.00;;;;;;10384395;28;20396;-44
2023/09/20 22:13:44;;;;;;;;;;;21.80;62.90;;;;;;10395855;28;19938;-42
2023/09/20 22:18:45;;;;;;;;;;;21.80;62.80;;;;;;10394215;28;20448;-42
2023/09/20 22:23:51;;;;;;;;;;;21.80;62.70;;;;;;10379154;28;20261;-42
2023/09/20 22:28:53;;;;;;;;;;;21.80;62.70;;;;;;10385694;28;19941;-41
2023/09/20 22:33:55;;;;;;;;;;;21.70;62.50;;;;;;10385600;28;19934;-43
2023/09/20 22:38:56;;;;;;;;;;;21.80;62.50;;;;;;10389721;28;20003;-42
2023/09/20 22:44:01;;;;;;;;;;;21.70;62.30;;;;;;10394150;28;20038;-45
2023/09/20 22:49:04;;;;;;;;;;;21.70;62.20;;;;;;10391201;28;19934;-45
2023/09/20 22:54:10;;;;;;;;;;;21.70;62.10;;;;;;10392843;28;19941;-41
2023/09/20 22:59:13;;;;;;;;;;;21.70;62.30;;;;;;10392594;28;20385;-42
2023/09/20 23:04:15;;;;;;;;;;;21.70;62.00;;;;;;10399720;28;19940;-41
2023/09/20 23:09:17;;;;;;;;;;;21.70;61.80;;;;;;10388715;28;20403;-44
2023/09/20 23:14:20;;;;;;;;;;;21.70;61.80;;;;;;10379546;28;19933;-43
2023/09/20 23:19:22;;;;;;;;;;;21.70;61.90;;;;;;10384970;28;20114;-41
2023/09/20 23:24:28;;;;;;;;;;;21.70;61.70;;;;;;10404736;28;20035;-43
2023/09/20 23:29:29;;;;;;;;;;;21.70;61.50;;;;;;10381733;28;20031;-43
2023/09/20 23:34:32;;;;;;;;;;;21.70;61.40;;;;;;10378416;28;20403;-68
2023/09/20 23:39:36;;;;;;;;;;;21.70;61.20;;;;;;10390174;28;19933;-43
2023/09/20 23:44:38;;;;;;;;;;;21.70;61.20;;;;;;10384107;28;20438;-44
2023/09/20 23:49:40;;;;;;;;;;;21.60;61.00;;;;;;10382658;28;20177;-44
2023/09/20 23:54:44;;;;;;;;;;;21.70;61.20;;;;;;10389937;28;20377;-46
2023/09/20 23:59:47;;;;;;;;;;;21.70;61.10;;;;;;10379886;28;20312;-42
